createdAt,value
2023-03-12T00:02:23.606Z,2.88
2023-03-12T00:04:50.359Z,4.05
2023-03-12T00:07:17.102Z,3.47
2023-03-12T00:09:43.846Z,5.47
2023-03-12T00:12:10.576Z,7.15
2023-03-12T00:14:37.297Z,3.58
2023-03-12T00:17:04.344Z,3.40
2023-03-12T00:19:33.753Z,3.40
2023-03-12T00:22:00.795Z,2.28
2023-03-12T00:24:27.627Z,3.40
2023-03-12T00:26:54.419Z,4.10
2023-03-12T00:29:21.211Z,4.22
2023-03-12T00:31:47.972Z,2.90
2023-03-12T00:34:14.763Z,6.20
2023-03-12T00:36:41.479Z,4.68
2023-03-12T00:39:08.261Z,3.50
2023-03-12T00:41:35.032Z,3.72
2023-03-12T00:44:01.906Z,3.83
2023-03-12T00:46:28.857Z,3.30
2023-03-12T00:48:55.827Z,5.53
2023-03-12T00:51:23.012Z,4.65
2023-03-12T00:53:49.899Z,7.80
2023-03-12T00:56:16.824Z,6.70
2023-03-12T00:58:43.696Z,6.15
2023-03-12T01:01:10.935Z,5.60
2023-03-12T01:03:38.051Z,5.50
2023-03-12T01:06:06.008Z,9.07
2023-03-12T01:08:33.732Z,9.30
2023-03-12T01:11:01.074Z,7.90
2023-03-12T01:13:27.822Z,10.57
2023-03-12T01:15:54.700Z,15.75
2023-03-12T01:18:21.440Z,10.95
2023-03-12T01:20:48.422Z,17.67
2023-03-12T01:23:16.134Z,9.80
2023-03-12T01:25:43.455Z,12.80
2023-03-12T01:28:10.425Z,14.18
2023-03-12T01:30:37.222Z,11.02
2023-03-12T01:33:04.081Z,10.77
2023-03-12T01:35:31.199Z,13.73
2023-03-12T01:37:58.198Z,12.07
2023-03-12T01:40:26.162Z,14.75
2023-03-12T01:42:54.561Z,10.77
2023-03-12T01:45:58.809Z,7.70
2023-03-12T01:48:28.043Z,17.08
2023-03-12T01:50:55.151Z,9.88
2023-03-12T01:53:22.441Z,12.82
2023-03-12T01:55:49.944Z,24.98
2023-03-12T01:58:17.386Z,16.95
2023-03-12T02:00:45.650Z,11.13
2023-03-12T02:03:13.834Z,17.13
2023-03-12T02:06:06.755Z,10.95
2023-03-12T02:11:03.756Z,11.65
2023-03-12T02:13:30.782Z,19.67
2023-03-12T02:15:57.695Z,7.50
2023-03-12T02:18:25.398Z,9.38
2023-03-12T02:20:59.327Z,14.23
2023-03-12T02:23:31.867Z,12.70
2023-03-12T02:28:29.517Z,14.15
2023-03-12T02:31:00.558Z,13.88
2023-03-12T02:33:27.494Z,16.52
2023-03-12T02:35:55.153Z,11.45
2023-03-12T02:38:39.424Z,11.35
2023-03-12T02:41:28.976Z,15.10
2023-03-12T02:44:08.358Z,13.13
2023-03-12T02:46:41.887Z,11.77
2023-03-12T02:49:09.270Z,13.80
2023-03-12T02:51:35.963Z,13.50
2023-03-12T02:54:02.749Z,17.73
2023-03-12T02:56:29.731Z,19.60
2023-03-12T02:58:56.555Z,16.27
2023-03-12T03:01:23.457Z,13.15
2023-03-12T03:03:50.652Z,13.07
2023-03-12T03:06:18.306Z,18.70
2023-03-12T03:08:45.263Z,19.65
2023-03-12T03:11:12.653Z,20.95
2023-03-12T03:13:39.487Z,10.15
2023-03-12T03:16:06.629Z,14.77
2023-03-12T03:18:33.666Z,8.38
2023-03-12T03:21:03.796Z,14.93
2023-03-12T03:23:30.675Z,14.10
2023-03-12T03:25:59.581Z,16.08
2023-03-12T03:28:28.544Z,12.10
2023-03-12T03:31:01.839Z,15.40
2023-03-12T03:33:29.757Z,12.63
2023-03-12T03:35:59.599Z,15.38
2023-03-12T03:38:27.826Z,18.85
2023-03-12T03:40:54.826Z,14.25
2023-03-12T03:43:22.785Z,11.77
2023-03-12T03:46:00.245Z,19.20
2023-03-12T03:48:27.421Z,17.02
2023-03-12T03:50:54.133Z,18.67
2023-03-12T03:53:21.391Z,19.67
2023-03-12T03:55:48.312Z,16.50
2023-03-12T03:58:15.178Z,19.00
2023-03-12T04:00:45.486Z,11.73
2023-03-12T04:03:13.802Z,12.88
2023-03-12T04:05:45.131Z,17.23
2023-03-12T04:08:15.108Z,12.60
2023-03-12T04:10:41.854Z,14.57
2023-03-12T04:13:08.662Z,16.42
2023-03-12T04:15:35.601Z,18.20
2023-03-12T04:18:02.436Z,10.65
2023-03-12T04:20:29.278Z,17.25
2023-03-12T04:22:56.056Z,24.85
2023-03-12T04:25:22.800Z,39.13
2023-03-12T04:27:49.564Z,17.90
2023-03-12T04:30:16.409Z,20.40
2023-03-12T04:32:43.219Z,24.38
2023-03-12T04:35:10.089Z,16.63
2023-03-12T04:37:36.901Z,20.27
2023-03-12T04:40:07.540Z,24.48
2023-03-12T04:42:35.736Z,25.00
2023-03-12T04:45:05.380Z,17.77
2023-03-12T04:47:33.724Z,22.63
2023-03-12T04:50:00.866Z,19.17
2023-03-12T04:52:27.798Z,20.38
2023-03-12T04:54:55.103Z,22.15
2023-03-12T04:57:21.869Z,23.50
2023-03-12T04:59:48.658Z,19.33
2023-03-12T05:02:15.505Z,18.30
2023-03-12T05:04:42.210Z,27.55
2023-03-12T05:07:09.051Z,18.23
2023-03-12T05:09:35.832Z,19.98
2023-03-12T05:12:02.723Z,17.67
2023-03-12T05:14:29.508Z,18.15
2023-03-12T05:16:56.445Z,27.27
2023-03-12T05:19:23.140Z,23.75
2023-03-12T05:21:49.913Z,28.65
2023-03-12T05:24:16.834Z,26.52
2023-03-12T05:26:43.583Z,17.50
2023-03-12T05:29:10.374Z,36.83
2023-03-12T05:31:37.191Z,39.15
2023-03-12T05:34:04.872Z,29.23
2023-03-12T05:36:31.933Z,32.33
2023-03-12T05:38:58.629Z,21.90
2023-03-12T05:41:27.772Z,26.02
2023-03-12T05:43:56.420Z,30.83
2023-03-12T05:46:24.763Z,28.30
2023-03-12T05:48:52.239Z,23.23
2023-03-12T05:51:19.516Z,21.80
2023-03-12T05:53:46.426Z,24.33
2023-03-12T05:56:15.716Z,32.67
2023-03-12T05:58:42.512Z,32.85
2023-03-12T06:01:19.236Z,32.40
2023-03-12T06:03:46.512Z,23.95
2023-03-12T06:06:13.902Z,29.42
2023-03-12T06:08:42.180Z,23.48
2023-03-12T06:11:09.215Z,42.17
2023-03-12T06:13:36.542Z,26.30
2023-03-12T06:16:09.841Z,21.85
2023-03-12T06:18:36.759Z,25.58
2023-03-12T06:21:18.765Z,21.75
2023-03-12T06:23:46.223Z,28.67
2023-03-12T06:26:13.978Z,29.75
2023-03-12T06:28:41.265Z,27.58
2023-03-12T06:31:08.515Z,26.33
2023-03-12T06:33:35.886Z,36.40
2023-03-12T06:36:05.747Z,28.77
2023-03-12T06:38:33.480Z,22.58
2023-03-12T06:41:08.049Z,34.30
2023-03-12T06:43:36.310Z,26.83
2023-03-12T06:46:03.933Z,27.40
2023-03-12T06:48:33.585Z,28.77
2023-03-12T06:51:00.400Z,25.90
2023-03-12T06:53:27.387Z,37.17
2023-03-12T06:55:54.126Z,24.60
2023-03-12T06:58:20.915Z,22.45
2023-03-12T07:00:47.703Z,37.58
2023-03-12T07:03:14.814Z,35.33
2023-03-12T07:05:45.502Z,32.63
2023-03-12T07:08:12.964Z,22.67
2023-03-12T07:10:39.967Z,25.50
2023-03-12T07:13:07.289Z,27.20
2023-03-12T07:15:34.658Z,28.40
2023-03-12T07:18:09.191Z,22.00
2023-03-12T07:20:41.688Z,22.90
2023-03-12T07:25:40.587Z,32.83
2023-03-12T07:28:08.502Z,23.88
2023-03-12T07:30:36.065Z,29.10
2023-03-12T07:33:11.633Z,24.00
2023-03-12T07:35:39.134Z,23.60
2023-03-12T07:38:06.630Z,27.05
2023-03-12T07:40:33.865Z,26.55
2023-03-12T07:43:00.746Z,22.38
2023-03-12T07:45:27.545Z,22.90
2023-03-12T07:47:54.421Z,27.65
2023-03-12T07:50:21.294Z,27.38
2023-03-12T07:52:48.231Z,33.83
2023-03-12T07:55:16.494Z,26.70
2023-03-12T07:57:43.493Z,38.55
2023-03-12T08:00:11.204Z,27.65
2023-03-12T08:02:38.951Z,33.33
2023-03-12T08:05:06.642Z,30.85
2023-03-12T08:07:35.192Z,31.58
2023-03-12T08:10:04.280Z,33.38
2023-03-12T08:12:31.191Z,23.20
2023-03-12T08:14:58.119Z,19.85
2023-03-12T08:17:25.323Z,26.50
2023-03-12T08:19:52.242Z,26.17
2023-03-12T08:22:19.070Z,27.17
2023-03-12T08:24:46.429Z,27.33
2023-03-12T08:27:13.542Z,21.02
2023-03-12T08:29:41.405Z,22.73
2023-03-12T08:32:10.636Z,27.05
2023-03-12T08:34:37.908Z,27.00
2023-03-12T08:37:05.150Z,37.88
2023-03-12T08:39:32.406Z,34.08
2023-03-12T08:41:59.591Z,29.08
2023-03-12T08:44:26.716Z,18.40
2023-03-12T08:46:53.839Z,18.55
2023-03-12T08:49:21.740Z,18.80
2023-03-12T08:51:49.070Z,23.90
2023-03-12T08:54:15.829Z,24.10
2023-03-12T08:56:43.997Z,23.95
2023-03-12T08:59:11.495Z,29.65
2023-03-12T09:01:38.771Z,23.30
2023-03-12T09:04:06.199Z,26.63
2023-03-12T09:06:35.378Z,28.77
2023-03-12T09:09:05.983Z,32.53
2023-03-12T09:11:33.940Z,21.73
2023-03-12T09:16:48.640Z,14.65
2023-03-12T09:19:16.364Z,29.77
2023-03-12T09:21:43.577Z,17.75
2023-03-12T09:24:11.623Z,29.70
2023-03-12T09:26:38.375Z,16.33
2023-03-12T09:29:05.588Z,19.52
2023-03-12T09:31:34.394Z,22.95
2023-03-12T09:34:01.181Z,16.30
2023-03-12T09:36:28.253Z,21.30
2023-03-12T09:38:55.445Z,18.10
2023-03-12T09:41:32.118Z,25.60
2023-03-12T09:44:19.448Z,24.17
2023-03-12T09:46:54.525Z,21.00
2023-03-12T09:49:46.837Z,18.42
2023-03-12T09:52:39.554Z,27.08
2023-03-12T09:55:11.858Z,22.85
2023-03-12T09:57:38.861Z,26.90
2023-03-12T10:00:08.139Z,13.15
2023-03-12T10:02:34.862Z,32.22
2023-03-12T10:05:17.922Z,22.58
2023-03-12T10:08:25.317Z,24.38
2023-03-12T10:11:32.303Z,19.38
2023-03-12T10:14:04.897Z,20.33
2023-03-12T10:16:34.306Z,25.10
2023-03-12T10:19:15.228Z,26.92
2023-03-12T10:22:18.160Z,28.80
2023-03-12T10:25:15.762Z,26.77
2023-03-12T10:27:43.261Z,21.98
2023-03-12T10:30:26.849Z,19.42
2023-03-12T10:33:01.365Z,20.23
2023-03-12T10:35:32.356Z,31.98
2023-03-12T10:38:07.365Z,18.88
2023-03-12T10:40:36.948Z,23.95
2023-03-12T10:43:04.535Z,40.25
2023-03-12T10:46:01.707Z,12.63
2023-03-12T10:48:28.417Z,13.15
2023-03-12T10:51:05.501Z,12.35
2023-03-12T10:53:35.406Z,15.45
2023-03-12T10:56:04.305Z,32.33
2023-03-12T10:58:51.962Z,18.08
2023-03-12T11:01:26.396Z,17.00
2023-03-12T11:04:09.061Z,26.33
2023-03-12T11:06:35.911Z,14.82
2023-03-12T11:09:17.635Z,13.93
2023-03-12T11:11:49.320Z,20.50
2023-03-12T11:14:22.031Z,14.87
2023-03-12T11:16:49.953Z,17.50
2023-03-12T11:19:34.144Z,22.75
2023-03-12T11:22:11.809Z,20.52
2023-03-12T11:25:02.502Z,19.48
2023-03-12T11:27:40.688Z,16.23
2023-03-12T11:30:17.911Z,20.45
2023-03-12T11:32:49.471Z,17.13
2023-03-12T11:35:19.986Z,29.63
2023-03-12T11:38:01.900Z,14.88
2023-03-12T11:40:55.997Z,17.48
2023-03-12T11:43:47.348Z,24.00
2023-03-12T11:46:35.186Z,14.52
2023-03-12T11:49:26.412Z,20.75
2023-03-12T11:51:57.064Z,13.85
2023-03-12T11:54:35.744Z,16.63
2023-03-12T11:57:20.307Z,21.10
2023-03-12T11:59:56.252Z,18.83
2023-03-12T12:02:41.847Z,15.75
2023-03-12T12:05:40.318Z,12.13
2023-03-12T12:08:17.433Z,19.27
2023-03-12T12:11:03.431Z,20.20
2023-03-12T12:13:44.686Z,19.05
2023-03-12T12:16:26.446Z,19.20
2023-03-12T12:19:19.395Z,17.37
2023-03-12T12:24:39.811Z,24.77
2023-03-12T12:27:27.135Z,19.30
2023-03-12T12:30:12.096Z,16.83
2023-03-12T12:32:41.757Z,21.75
2023-03-12T12:35:38.913Z,20.23
2023-03-12T12:38:13.502Z,21.63
2023-03-12T12:40:54.609Z,22.23
2023-03-12T12:43:25.288Z,12.82
2023-03-12T12:45:55.866Z,26.05
2023-03-12T12:48:29.516Z,18.48
2023-03-12T12:51:00.104Z,14.88
2023-03-12T12:53:30.087Z,21.00
2023-03-12T12:56:15.564Z,15.40
2023-03-12T12:58:51.184Z,21.15
2023-03-12T13:01:18.581Z,25.08
2023-03-12T13:03:47.423Z,20.38
2023-03-12T13:06:14.148Z,19.20
2023-03-12T13:08:42.260Z,18.02
2023-03-12T13:11:18.693Z,12.55
2023-03-12T13:14:12.262Z,24.38
2023-03-12T13:16:42.980Z,16.07
2023-03-12T13:19:16.049Z,16.55
2023-03-12T13:22:14.800Z,20.15
2023-03-12T13:25:02.063Z,20.08
2023-03-12T13:27:39.011Z,24.58
2023-03-12T13:30:27.511Z,15.32
2023-03-12T13:32:56.948Z,18.27
2023-03-12T13:35:23.632Z,15.60
2023-03-12T13:37:53.365Z,11.07
2023-03-12T13:40:29.433Z,13.18
2023-03-12T13:43:02.373Z,13.75
2023-03-12T13:45:31.874Z,25.92
2023-03-12T13:48:06.660Z,8.93
2023-03-12T13:50:41.003Z,19.30
2023-03-12T13:53:15.814Z,21.17
2023-03-12T13:55:44.924Z,16.42
2023-03-12T13:58:23.586Z,26.20
2023-03-12T14:00:57.855Z,16.83
2023-03-12T14:03:39.178Z,12.55
2023-03-12T14:06:11.128Z,11.82
2023-03-12T14:09:05.500Z,8.45
2023-03-12T14:11:44.210Z,6.78
2023-03-12T14:14:37.056Z,7.03
2023-03-12T14:19:35.156Z,11.02
2023-03-12T14:22:05.814Z,22.45
2023-03-12T14:24:39.798Z,5.38
2023-03-12T14:27:14.803Z,18.83
2023-03-12T14:29:55.443Z,8.77
2023-03-12T14:32:32.173Z,9.25
2023-03-12T14:35:16.953Z,8.80
2023-03-12T14:37:51.112Z,11.32
2023-03-12T14:40:38.239Z,10.55
2023-03-12T14:43:37.816Z,12.20
2023-03-12T14:46:14.334Z,12.45
2023-03-12T14:48:41.151Z,9.18
2023-03-12T14:51:08.461Z,21.25
2023-03-12T14:53:37.419Z,20.48
2023-03-12T14:56:10.102Z,14.15
2023-03-12T14:58:44.506Z,13.25
2023-03-12T15:01:15.392Z,14.73
2023-03-12T15:03:54.817Z,9.98
2023-03-12T15:06:29.009Z,8.73
2023-03-12T15:08:57.036Z,20.45
2023-03-12T15:11:25.970Z,11.98
2023-03-12T15:13:54.855Z,12.52
2023-03-12T15:16:22.903Z,14.82
2023-03-12T15:18:50.764Z,12.90
2023-03-12T15:21:17.868Z,12.13
2023-03-12T15:23:47.747Z,15.98
2023-03-12T15:26:20.878Z,8.95
2023-03-12T15:29:28.157Z,9.77
2023-03-12T15:31:58.538Z,11.75
2023-03-12T15:34:32.796Z,6.32
2023-03-12T15:37:02.413Z,9.13
2023-03-12T15:39:35.292Z,12.52
2023-03-12T15:42:08.750Z,7.55
2023-03-12T15:44:49.474Z,4.43
2023-03-12T15:47:22.726Z,8.68
2023-03-12T15:50:32.950Z,8.80
2023-03-12T15:53:16.063Z,5.57
2023-03-12T15:55:43.469Z,6.97
2023-03-12T15:58:27.290Z,2.55
2023-03-12T16:00:54.672Z,5.45
2023-03-12T16:03:22.508Z,6.53
2023-03-12T16:05:50.572Z,4.53
2023-03-12T16:08:29.223Z,5.43
2023-03-12T16:10:56.520Z,5.35
2023-03-12T16:13:31.044Z,4.80
2023-03-12T16:15:58.806Z,7.60
2023-03-12T16:18:25.692Z,5.95
2023-03-12T16:20:53.260Z,9.10
2023-03-12T16:23:20.481Z,7.18
2023-03-12T16:25:55.653Z,6.65
2023-03-12T16:28:23.161Z,8.38
2023-03-12T16:30:50.228Z,4.32
2023-03-12T16:33:19.825Z,11.07
2023-03-12T16:35:47.200Z,4.82
2023-03-12T16:38:14.536Z,8.55
2023-03-12T16:40:46.301Z,3.25
2023-03-12T16:43:25.544Z,5.63
2023-03-12T16:45:54.147Z,7.07
2023-03-12T16:48:24.477Z,3.70
2023-03-12T16:50:56.821Z,9.25
2023-03-12T16:53:25.462Z,8.73
2023-03-12T16:55:57.926Z,4.82
2023-03-12T17:00:53.803Z,5.43
2023-03-12T17:03:31.440Z,11.45
2023-03-12T17:06:00.009Z,6.13
2023-03-12T17:08:27.437Z,8.65
2023-03-12T17:10:55.655Z,9.20
2023-03-12T17:13:27.822Z,7.80
2023-03-12T17:15:55.658Z,6.10
2023-03-12T17:18:22.844Z,8.25
2023-03-12T17:20:51.723Z,11.48
2023-03-12T17:23:18.971Z,8.95
2023-03-12T17:25:46.588Z,11.25
2023-03-12T17:28:15.539Z,8.20
2023-03-12T17:30:42.894Z,7.82
2023-03-12T17:33:16.291Z,7.97
2023-03-12T17:35:44.226Z,9.95
2023-03-12T17:38:12.743Z,8.93
2023-03-12T17:40:41.465Z,14.15
2023-03-12T17:43:08.521Z,10.93
2023-03-12T17:45:36.958Z,7.30
2023-03-12T17:48:04.320Z,8.35
2023-03-12T17:50:31.452Z,14.90
2023-03-12T17:52:58.154Z,15.43
2023-03-12T17:55:24.987Z,13.93
2023-03-12T17:57:51.751Z,14.68
2023-03-12T18:00:21.462Z,16.17
2023-03-12T18:02:48.809Z,14.18
2023-03-12T18:05:15.616Z,9.82
2023-03-12T18:07:42.386Z,24.85
2023-03-12T18:10:13.819Z,18.02
2023-03-12T18:12:40.750Z,18.48
2023-03-12T18:15:10.858Z,17.73
2023-03-12T18:17:38.108Z,18.67
2023-03-12T18:20:16.658Z,16.58
2023-03-12T18:22:46.496Z,17.10
2023-03-12T18:25:15.806Z,21.17
2023-03-12T18:27:42.725Z,16.75
2023-03-12T18:30:12.533Z,23.42
2023-03-12T18:32:40.057Z,13.77
2023-03-12T18:35:08.246Z,17.90
2023-03-12T18:37:35.017Z,19.92
2023-03-12T18:40:01.818Z,25.27
2023-03-12T18:42:28.611Z,21.45
2023-03-12T18:44:58.661Z,23.25
2023-03-12T18:47:25.750Z,17.38
2023-03-12T18:49:55.134Z,15.60
2023-03-12T18:52:22.302Z,19.73
2023-03-12T18:54:49.105Z,21.48
2023-03-12T18:57:15.797Z,15.80
2023-03-12T18:59:45.294Z,19.35
2023-03-12T19:02:12.415Z,26.65
2023-03-12T19:04:39.453Z,20.73
2023-03-12T19:07:07.559Z,17.45
2023-03-12T19:09:34.701Z,12.65
2023-03-12T19:12:01.514Z,14.27
2023-03-12T19:14:29.265Z,16.15
2023-03-12T19:16:56.320Z,18.52
2023-03-12T19:19:23.116Z,22.02
2023-03-12T19:21:49.821Z,15.43
2023-03-12T19:24:16.568Z,34.00
2023-03-12T19:26:43.289Z,16.35
2023-03-12T19:29:10.198Z,13.48
2023-03-12T19:31:36.999Z,23.35
2023-03-12T19:34:03.735Z,16.52
2023-03-12T19:36:30.545Z,25.00
2023-03-12T19:38:57.381Z,16.17
2023-03-12T19:41:24.070Z,12.80
2023-03-12T19:43:50.856Z,11.88
2023-03-12T19:46:17.601Z,8.10
2023-03-12T19:48:44.439Z,18.92
2023-03-12T19:51:12.070Z,9.95
2023-03-12T19:53:39.124Z,11.35
2023-03-12T19:56:06.578Z,12.02
2023-03-12T19:58:33.460Z,12.98
2023-03-12T20:01:01.414Z,8.75
2023-03-12T20:03:29.192Z,10.48
2023-03-12T20:05:56.962Z,9.63
2023-03-12T20:08:26.161Z,12.30
2023-03-12T20:10:52.875Z,10.45
2023-03-12T20:13:20.416Z,13.88
2023-03-12T20:15:48.514Z,9.07
2023-03-12T20:18:15.908Z,11.38
2023-03-12T20:20:43.062Z,4.53
2023-03-12T20:23:09.843Z,7.80
2023-03-12T20:25:40.918Z,4.20
2023-03-12T20:28:08.978Z,4.35
2023-03-12T20:30:36.883Z,3.70
2023-03-12T20:33:05.780Z,5.90
2023-03-12T20:35:32.783Z,6.03
2023-03-12T20:37:59.626Z,6.40
2023-03-12T20:40:26.410Z,4.03
2023-03-12T20:42:53.209Z,2.58
2023-03-12T20:45:20.060Z,1.40
2023-03-12T20:47:46.851Z,1.23
2023-03-12T20:50:13.649Z,1.42
2023-03-12T20:52:40.414Z,0.98
2023-03-12T20:55:07.655Z,0.63
2023-03-12T20:57:34.484Z,1.55
2023-03-12T21:00:01.303Z,2.90
2023-03-12T21:02:28.101Z,2.28
2023-03-12T21:04:54.918Z,1.20
2023-03-12T21:07:21.989Z,1.55
2023-03-12T21:09:48.808Z,0.73
2023-03-12T21:12:15.669Z,1.85
2023-03-12T21:14:43.144Z,1.38
2023-03-12T21:17:13.463Z,1.77
2023-03-12T21:19:43.251Z,1.58
2023-03-12T21:22:10.137Z,0.77
2023-03-12T21:24:36.976Z,4.13
2023-03-12T21:27:04.001Z,1.33
2023-03-12T21:29:30.885Z,0.35
2023-03-12T21:31:57.703Z,0.75
2023-03-12T21:34:24.556Z,3.30
2023-03-12T21:36:51.270Z,1.83
2023-03-12T21:39:18.829Z,0.80
2023-03-12T21:41:45.661Z,0.52
2023-03-12T21:44:15.331Z,4.57
2023-03-12T21:46:43.329Z,4.78
2023-03-12T21:49:10.318Z,0.43
2023-03-12T21:51:39.386Z,0.68
2023-03-12T21:54:06.715Z,0.32
2023-03-12T21:56:33.662Z,1.02
2023-03-12T21:59:00.885Z,0.47
2023-03-12T22:01:27.993Z,0.73
2023-03-12T22:03:55.232Z,0.93
2023-03-12T22:06:22.556Z,0.75
2023-03-12T22:08:50.073Z,1.40
2023-03-12T22:11:17.186Z,1.50
2023-03-12T22:13:44.405Z,0.73
2023-03-12T22:16:13.223Z,2.60
2023-03-12T22:18:43.115Z,1.85
2023-03-12T22:21:17.760Z,2.63
2023-03-12T22:23:47.770Z,2.60
2023-03-12T22:26:14.981Z,1.10
2023-03-12T22:28:42.495Z,0.95
2023-03-12T22:31:09.957Z,1.27
2023-03-12T22:33:37.062Z,0.80
2023-03-12T22:36:09.770Z,0.50
2023-03-12T22:38:37.490Z,0.95
2023-03-12T22:41:15.123Z,2.08
2023-03-12T22:43:42.531Z,1.23
2023-03-12T22:46:10.100Z,1.15
2023-03-12T22:48:37.182Z,1.05
2023-03-12T22:51:05.391Z,6.80
2023-03-12T22:53:33.327Z,6.13
2023-03-12T22:56:06.091Z,0.68
2023-03-12T22:58:33.722Z,3.90
2023-03-12T23:01:03.818Z,3.83
2023-03-12T23:03:33.845Z,1.30
2023-03-12T23:06:01.556Z,1.88
2023-03-12T23:08:29.620Z,0.40
2023-03-12T23:10:59.299Z,0.47
2023-03-12T23:13:27.695Z,1.20
2023-03-12T23:15:54.604Z,0.57
2023-03-12T23:18:21.704Z,0.50
2023-03-12T23:20:57.120Z,2.80
2023-03-12T23:23:23.798Z,0.68
2023-03-12T23:25:55.224Z,0.45
2023-03-12T23:28:22.816Z,0.77
2023-03-12T23:31:05.644Z,3.33
2023-03-12T23:33:33.580Z,1.92
2023-03-12T23:36:04.956Z,4.32
2023-03-12T23:38:32.453Z,7.78
2023-03-12T23:41:23.680Z,1.60
2023-03-12T23:43:51.440Z,4.78
2023-03-12T23:46:19.175Z,2.67
2023-03-12T23:48:46.870Z,4.47
2023-03-12T23:51:19.696Z,8.85
2023-03-12T23:53:48.887Z,5.53
2023-03-12T23:56:19.206Z,9.27
2023-03-12T23:58:46.466Z,8.55
